sensor_id;sensor_type;location;lat;lon;timestamp;P1;durP1;ratioP1;P2;durP2;ratioP2
71265;SDS011;59030;52.052;8.550;2023-08-08T00:01:05;2.63;;;1.80;;
71265;SDS011;59030;52.052;8.550;2023-08-08T00:03:32;2.87;;;2.30;;
71265;SDS011;59030;52.052;8.550;2023-08-08T00:06:00;4.07;;;2.23;;
71265;SDS011;59030;52.052;8.550;2023-08-08T00:08:27;2.80;;;2.10;;
71265;SDS011;59030;52.052;8.550;2023-08-08T00:10:54;2.90;;;2.00;;
71265;SDS011;59030;52.052;8.550;2023-08-08T00:13:22;3.10;;;2.30;;
71265;SDS011;59030;52.052;8.550;2023-08-08T00:15:49;2.33;;;2.13;;
71265;SDS011;59030;52.052;8.550;2023-08-08T00:18:16;2.87;;;2.10;;
71265;SDS011;59030;52.052;8.550;2023-08-08T00:20:44;3.07;;;2.23;;
71265;SDS011;59030;52.052;8.550;2023-08-08T00:23:11;2.97;;;2.37;;
71265;SDS011;59030;52.052;8.550;2023-08-08T00:25:38;4.43;;;2.47;;
71265;SDS011;59030;52.052;8.550;2023-08-08T00:28:06;3.37;;;2.37;;
71265;SDS011;59030;52.052;8.550;2023-08-08T00:30:33;3.33;;;2.60;;
71265;SDS011;59030;52.052;8.550;2023-08-08T00:33:00;4.17;;;2.50;;
71265;SDS011;59030;52.052;8.550;2023-08-08T00:35:27;2.60;;;2.30;;
71265;SDS011;59030;52.052;8.550;2023-08-08T00:37:55;3.20;;;2.47;;
71265;SDS011;59030;52.052;8.550;2023-08-08T00:40:22;3.13;;;2.50;;
71265;SDS011;59030;52.052;8.550;2023-08-08T00:42:49;2.93;;;2.60;;
71265;SDS011;59030;52.052;8.550;2023-08-08T00:45:16;3.20;;;2.23;;
71265;SDS011;59030;52.052;8.550;2023-08-08T00:47:44;4.50;;;2.67;;
71265;SDS011;59030;52.052;8.550;2023-08-08T00:50:11;4.03;;;2.67;;
71265;SDS011;59030;52.052;8.550;2023-08-08T00:52:39;3.43;;;2.50;;
71265;SDS011;59030;52.052;8.550;2023-08-08T00:55:07;5.23;;;2.50;;
71265;SDS011;59030;52.052;8.550;2023-08-08T00:57:35;3.83;;;2.20;;
71265;SDS011;59030;52.052;8.550;2023-08-08T01:00:06;3.40;;;2.53;;
71265;SDS011;59030;52.052;8.550;2023-08-08T01:02:33;3.93;;;2.60;;
71265;SDS011;59030;52.052;8.550;2023-08-08T01:05:00;3.37;;;2.63;;
71265;SDS011;59030;52.052;8.550;2023-08-08T01:07:29;3.40;;;2.53;;
71265;SDS011;59030;52.052;8.550;2023-08-08T01:09:59;3.73;;;2.57;;
71265;SDS011;59030;52.052;8.550;2023-08-08T01:12:28;3.13;;;2.00;;
71265;SDS011;59030;52.052;8.550;2023-08-08T01:14:55;2.20;;;2.00;;
71265;SDS011;59030;52.052;8.550;2023-08-08T01:17:23;3.83;;;2.13;;
71265;SDS011;59030;52.052;8.550;2023-08-08T01:19:51;3.53;;;2.57;;
71265;SDS011;59030;52.052;8.550;2023-08-08T01:22:22;2.93;;;2.33;;
71265;SDS011;59030;52.052;8.550;2023-08-08T01:24:49;4.93;;;1.97;;
71265;SDS011;59030;52.052;8.550;2023-08-08T01:27:18;2.83;;;2.30;;
71265;SDS011;59030;52.052;8.550;2023-08-08T01:29:45;4.70;;;2.17;;
71265;SDS011;59030;52.052;8.550;2023-08-08T01:32:12;2.03;;;1.83;;
71265;SDS011;59030;52.052;8.550;2023-08-08T01:34:40;2.90;;;2.00;;
71265;SDS011;59030;52.052;8.550;2023-08-08T01:37:09;3.77;;;2.20;;
71265;SDS011;59030;52.052;8.550;2023-08-08T01:39:36;2.20;;;1.80;;
71265;SDS011;59030;52.052;8.550;2023-08-08T01:42:05;2.20;;;1.90;;
71265;SDS011;59030;52.052;8.550;2023-08-08T01:44:33;2.37;;;1.90;;
71265;SDS011;59030;52.052;8.550;2023-08-08T01:47:01;3.30;;;2.13;;
71265;SDS011;59030;52.052;8.550;2023-08-08T01:49:28;2.00;;;1.70;;
71265;SDS011;59030;52.052;8.550;2023-08-08T01:51:55;4.00;;;1.97;;
71265;SDS011;59030;52.052;8.550;2023-08-08T01:54:22;2.00;;;1.83;;
71265;SDS011;59030;52.052;8.550;2023-08-08T01:56:50;2.47;;;1.77;;
71265;SDS011;59030;52.052;8.550;2023-08-08T01:59:17;3.60;;;1.90;;
71265;SDS011;59030;52.052;8.550;2023-08-08T02:01:44;2.33;;;1.70;;
71265;SDS011;59030;52.052;8.550;2023-08-08T02:04:11;2.83;;;1.80;;
71265;SDS011;59030;52.052;8.550;2023-08-08T02:06:38;1.57;;;1.47;;
71265;SDS011;59030;52.052;8.550;2023-08-08T02:09:06;2.30;;;1.87;;
71265;SDS011;59030;52.052;8.550;2023-08-08T02:11:33;2.60;;;1.80;;
71265;SDS011;59030;52.052;8.550;2023-08-08T02:14:00;2.40;;;1.80;;
71265;SDS011;59030;52.052;8.550;2023-08-08T02:16:27;2.37;;;1.70;;
71265;SDS011;59030;52.052;8.550;2023-08-08T02:18:55;1.80;;;1.70;;
71265;SDS011;59030;52.052;8.550;2023-08-08T02:21:22;2.10;;;1.60;;
71265;SDS011;59030;52.052;8.550;2023-08-08T02:23:49;1.93;;;1.60;;
71265;SDS011;59030;52.052;8.550;2023-08-08T02:26:16;2.07;;;1.70;;
71265;SDS011;59030;52.052;8.550;2023-08-08T02:28:43;2.00;;;1.80;;
71265;SDS011;59030;52.052;8.550;2023-08-08T02:31:11;1.80;;;1.53;;
71265;SDS011;59030;52.052;8.550;2023-08-08T02:33:38;2.10;;;1.67;;
71265;SDS011;59030;52.052;8.550;2023-08-08T02:36:05;2.07;;;1.70;;
71265;SDS011;59030;52.052;8.550;2023-08-08T02:38:32;1.70;;;1.60;;
71265;SDS011;59030;52.052;8.550;2023-08-08T02:40:59;3.37;;;1.70;;
71265;SDS011;59030;52.052;8.550;2023-08-08T02:43:27;1.63;;;1.53;;
71265;SDS011;59030;52.052;8.550;2023-08-08T02:45:54;1.63;;;1.53;;
71265;SDS011;59030;52.052;8.550;2023-08-08T02:48:21;1.77;;;1.57;;
71265;SDS011;59030;52.052;8.550;2023-08-08T02:50:48;2.23;;;1.57;;
71265;SDS011;59030;52.052;8.550;2023-08-08T02:53:16;1.60;;;1.50;;
71265;SDS011;59030;52.052;8.550;2023-08-08T02:55:43;2.20;;;1.70;;
71265;SDS011;59030;52.052;8.550;2023-08-08T02:58:10;1.60;;;1.50;;
71265;SDS011;59030;52.052;8.550;2023-08-08T03:00:37;1.90;;;1.40;;
71265;SDS011;59030;52.052;8.550;2023-08-08T03:03:05;2.20;;;1.50;;
71265;SDS011;59030;52.052;8.550;2023-08-08T03:05:32;1.50;;;1.40;;
71265;SDS011;59030;52.052;8.550;2023-08-08T03:07:59;2.13;;;1.70;;
71265;SDS011;59030;52.052;8.550;2023-08-08T03:10:28;2.47;;;1.77;;
71265;SDS011;59030;52.052;8.550;2023-08-08T03:12:55;1.87;;;1.70;;
71265;SDS011;59030;52.052;8.550;2023-08-08T03:15:22;1.53;;;1.30;;
71265;SDS011;59030;52.052;8.550;2023-08-08T03:17:50;1.67;;;1.57;;
71265;SDS011;59030;52.052;8.550;2023-08-08T03:20:17;1.63;;;1.53;;
71265;SDS011;59030;52.052;8.550;2023-08-08T03:22:44;1.87;;;1.60;;
71265;SDS011;59030;52.052;8.550;2023-08-08T03:25:11;1.80;;;1.40;;
71265;SDS011;59030;52.052;8.550;2023-08-08T03:27:39;2.00;;;1.70;;
71265;SDS011;59030;52.052;8.550;2023-08-08T03:30:07;2.27;;;2.07;;
71265;SDS011;59030;52.052;8.550;2023-08-08T03:32:34;2.53;;;1.80;;
71265;SDS011;59030;52.052;8.550;2023-08-08T03:35:01;1.90;;;1.67;;
71265;SDS011;59030;52.052;8.550;2023-08-08T03:37:29;2.30;;;2.10;;
71265;SDS011;59030;52.052;8.550;2023-08-08T03:39:57;1.90;;;1.80;;
71265;SDS011;59030;52.052;8.550;2023-08-08T03:42:24;2.77;;;2.20;;
71265;SDS011;59030;52.052;8.550;2023-08-08T03:44:51;2.83;;;2.20;;
71265;SDS011;59030;52.052;8.550;2023-08-08T03:47:18;2.03;;;1.83;;
71265;SDS011;59030;52.052;8.550;2023-08-08T03:49:46;2.40;;;2.20;;
71265;SDS011;59030;52.052;8.550;2023-08-08T03:52:13;2.53;;;2.27;;
71265;SDS011;59030;52.052;8.550;2023-08-08T03:54:41;3.80;;;2.50;;
71265;SDS011;59030;52.052;8.550;2023-08-08T03:57:08;2.63;;;2.37;;
71265;SDS011;59030;52.052;8.550;2023-08-08T03:59:38;2.83;;;2.50;;
71265;SDS011;59030;52.052;8.550;2023-08-08T04:02:12;3.03;;;2.67;;
71265;SDS011;59030;52.052;8.550;2023-08-08T04:04:34;3.00;;;2.60;;
71265;SDS011;59030;52.052;8.550;2023-08-08T04:07:02;5.03;;;3.10;;
71265;SDS011;59030;52.052;8.550;2023-08-08T04:09:29;3.43;;;2.77;;
71265;SDS011;59030;52.052;8.550;2023-08-08T04:11:57;5.47;;;2.70;;
71265;SDS011;59030;52.052;8.550;2023-08-08T04:14:24;3.10;;;2.57;;
71265;SDS011;59030;52.052;8.550;2023-08-08T04:16:51;3.60;;;2.60;;
71265;SDS011;59030;52.052;8.550;2023-08-08T04:19:18;5.57;;;2.87;;
71265;SDS011;59030;52.052;8.550;2023-08-08T04:21:46;3.80;;;2.83;;
71265;SDS011;59030;52.052;8.550;2023-08-08T04:24:13;5.27;;;2.90;;
71265;SDS011;59030;52.052;8.550;2023-08-08T04:26:40;3.67;;;2.90;;
71265;SDS011;59030;52.052;8.550;2023-08-08T04:29:07;3.00;;;2.70;;
71265;SDS011;59030;52.052;8.550;2023-08-08T04:31:34;3.47;;;2.70;;
71265;SDS011;59030;52.052;8.550;2023-08-08T04:34:02;3.50;;;2.80;;
71265;SDS011;59030;52.052;8.550;2023-08-08T04:36:29;4.90;;;3.20;;
71265;SDS011;59030;52.052;8.550;2023-08-08T04:38:56;4.20;;;2.90;;
71265;SDS011;59030;52.052;8.550;2023-08-08T04:41:24;3.80;;;2.83;;
71265;SDS011;59030;52.052;8.550;2023-08-08T04:43:51;4.30;;;2.77;;
71265;SDS011;59030;52.052;8.550;2023-08-08T04:46:18;3.43;;;3.10;;
71265;SDS011;59030;52.052;8.550;2023-08-08T04:48:45;5.13;;;2.87;;
71265;SDS011;59030;52.052;8.550;2023-08-08T04:51:13;4.33;;;3.60;;
71265;SDS011;59030;52.052;8.550;2023-08-08T04:53:40;6.17;;;3.53;;
71265;SDS011;59030;52.052;8.550;2023-08-08T04:56:07;5.00;;;3.20;;
71265;SDS011;59030;52.052;8.550;2023-08-08T04:58:34;5.63;;;3.50;;
71265;SDS011;59030;52.052;8.550;2023-08-08T05:01:02;5.20;;;3.07;;
71265;SDS011;59030;52.052;8.550;2023-08-08T05:03:29;4.17;;;3.30;;
71265;SDS011;59030;52.052;8.550;2023-08-08T05:05:56;3.70;;;2.90;;
71265;SDS011;59030;52.052;8.550;2023-08-08T05:08:25;3.97;;;2.93;;
71265;SDS011;59030;52.052;8.550;2023-08-08T05:10:52;5.10;;;3.13;;
71265;SDS011;59030;52.052;8.550;2023-08-08T05:13:20;4.70;;;3.20;;
71265;SDS011;59030;52.052;8.550;2023-08-08T05:15:47;4.07;;;3.10;;
71265;SDS011;59030;52.052;8.550;2023-08-08T05:18:14;5.20;;;3.00;;
71265;SDS011;59030;52.052;8.550;2023-08-08T05:20:41;4.80;;;3.20;;
71265;SDS011;59030;52.052;8.550;2023-08-08T05:23:08;6.10;;;3.20;;
71265;SDS011;59030;52.052;8.550;2023-08-08T05:25:36;4.03;;;3.20;;
71265;SDS011;59030;52.052;8.550;2023-08-08T05:28:03;3.47;;;2.90;;
71265;SDS011;59030;52.052;8.550;2023-08-08T05:30:31;3.87;;;3.17;;
71265;SDS011;59030;52.052;8.550;2023-08-08T05:32:58;3.53;;;3.00;;
71265;SDS011;59030;52.052;8.550;2023-08-08T05:35:25;3.70;;;2.90;;
71265;SDS011;59030;52.052;8.550;2023-08-08T05:37:52;4.27;;;3.20;;
71265;SDS011;59030;52.052;8.550;2023-08-08T05:40:20;5.27;;;3.33;;
71265;SDS011;59030;52.052;8.550;2023-08-08T05:42:47;4.20;;;3.27;;
71265;SDS011;59030;52.052;8.550;2023-08-08T05:45:14;6.73;;;3.40;;
71265;SDS011;59030;52.052;8.550;2023-08-08T05:47:41;6.50;;;3.40;;
71265;SDS011;59030;52.052;8.550;2023-08-08T05:50:09;3.77;;;3.07;;
71265;SDS011;59030;52.052;8.550;2023-08-08T05:52:36;4.63;;;3.40;;
71265;SDS011;59030;52.052;8.550;2023-08-08T05:55:04;3.83;;;3.13;;
71265;SDS011;59030;52.052;8.550;2023-08-08T05:57:32;4.00;;;3.00;;
71265;SDS011;59030;52.052;8.550;2023-08-08T05:59:59;4.87;;;3.50;;
71265;SDS011;59030;52.052;8.550;2023-08-08T06:02:26;6.07;;;3.30;;
71265;SDS011;59030;52.052;8.550;2023-08-08T06:04:53;3.40;;;3.07;;
71265;SDS011;59030;52.052;8.550;2023-08-08T06:07:20;3.43;;;3.13;;
71265;SDS011;59030;52.052;8.550;2023-08-08T06:09:48;6.70;;;3.37;;
71265;SDS011;59030;52.052;8.550;2023-08-08T06:12:15;3.93;;;2.80;;
71265;SDS011;59030;52.052;8.550;2023-08-08T06:14:42;5.73;;;2.80;;
71265;SDS011;59030;52.052;8.550;2023-08-08T06:17:09;3.33;;;3.03;;
71265;SDS011;59030;52.052;8.550;2023-08-08T06:19:36;4.07;;;3.20;;
71265;SDS011;59030;52.052;8.550;2023-08-08T06:22:04;2.97;;;2.67;;
71265;SDS011;59030;52.052;8.550;2023-08-08T06:24:31;3.77;;;2.80;;
71265;SDS011;59030;52.052;8.550;2023-08-08T06:26:58;4.43;;;2.80;;
71265;SDS011;59030;52.052;8.550;2023-08-08T06:29:25;3.53;;;2.90;;
71265;SDS011;59030;52.052;8.550;2023-08-08T06:31:53;5.30;;;3.00;;
71265;SDS011;59030;52.052;8.550;2023-08-08T06:34:20;3.50;;;2.67;;
71265;SDS011;59030;52.052;8.550;2023-08-08T06:36:48;4.70;;;3.00;;
71265;SDS011;59030;52.052;8.550;2023-08-08T06:39:15;4.03;;;2.73;;
71265;SDS011;59030;52.052;8.550;2023-08-08T06:41:44;4.17;;;3.00;;
71265;SDS011;59030;52.052;8.550;2023-08-08T06:44:11;3.37;;;3.07;;
71265;SDS011;59030;52.052;8.550;2023-08-08T06:46:38;6.30;;;3.30;;
71265;SDS011;59030;52.052;8.550;2023-08-08T06:49:06;3.27;;;2.97;;
71265;SDS011;59030;52.052;8.550;2023-08-08T06:51:34;4.03;;;3.20;;
71265;SDS011;59030;52.052;8.550;2023-08-08T06:54:02;4.73;;;3.47;;
71265;SDS011;59030;52.052;8.550;2023-08-08T06:56:29;4.43;;;3.30;;
71265;SDS011;59030;52.052;8.550;2023-08-08T06:58:56;4.90;;;3.57;;
71265;SDS011;59030;52.052;8.550;2023-08-08T07:01:24;4.03;;;3.63;;
71265;SDS011;59030;52.052;8.550;2023-08-08T07:03:51;5.00;;;3.60;;
71265;SDS011;59030;52.052;8.550;2023-08-08T07:06:18;4.47;;;3.87;;
71265;SDS011;59030;52.052;8.550;2023-08-08T07:08:45;4.20;;;3.80;;
71265;SDS011;59030;52.052;8.550;2023-08-08T07:11:12;5.07;;;3.77;;
71265;SDS011;59030;52.052;8.550;2023-08-08T07:13:40;6.07;;;4.20;;
71265;SDS011;59030;52.052;8.550;2023-08-08T07:16:07;4.77;;;3.60;;
71265;SDS011;59030;52.052;8.550;2023-08-08T07:18:34;4.70;;;4.00;;
71265;SDS011;59030;52.052;8.550;2023-08-08T07:21:02;4.33;;;3.77;;
71265;SDS011;59030;52.052;8.550;2023-08-08T07:23:29;5.93;;;4.20;;
71265;SDS011;59030;52.052;8.550;2023-08-08T07:25:56;6.13;;;4.50;;
71265;SDS011;59030;52.052;8.550;2023-08-08T07:28:23;6.97;;;4.20;;
71265;SDS011;59030;52.052;8.550;2023-08-08T07:30:51;5.83;;;4.23;;
71265;SDS011;59030;52.052;8.550;2023-08-08T07:33:18;5.53;;;4.00;;
71265;SDS011;59030;52.052;8.550;2023-08-08T07:35:45;5.77;;;4.50;;
71265;SDS011;59030;52.052;8.550;2023-08-08T07:38:13;5.87;;;4.37;;
71265;SDS011;59030;52.052;8.550;2023-08-08T07:40:40;5.70;;;4.00;;
71265;SDS011;59030;52.052;8.550;2023-08-08T07:43:07;8.03;;;4.70;;
71265;SDS011;59030;52.052;8.550;2023-08-08T07:45:34;6.10;;;4.70;;
71265;SDS011;59030;52.052;8.550;2023-08-08T07:48:03;6.30;;;5.00;;
71265;SDS011;59030;52.052;8.550;2023-08-08T07:50:31;7.00;;;4.70;;
71265;SDS011;59030;52.052;8.550;2023-08-08T07:52:58;6.30;;;4.50;;
71265;SDS011;59030;52.052;8.550;2023-08-08T07:55:25;7.93;;;4.70;;
71265;SDS011;59030;52.052;8.550;2023-08-08T07:57:53;7.47;;;4.93;;
71265;SDS011;59030;52.052;8.550;2023-08-08T08:00:20;7.70;;;5.20;;
71265;SDS011;59030;52.052;8.550;2023-08-08T08:02:47;6.83;;;4.60;;
71265;SDS011;59030;52.052;8.550;2023-08-08T08:05:15;7.60;;;5.13;;
71265;SDS011;59030;52.052;8.550;2023-08-08T08:07:42;7.30;;;5.33;;
71265;SDS011;59030;52.052;8.550;2023-08-08T08:10:11;8.03;;;5.00;;
71265;SDS011;59030;52.052;8.550;2023-08-08T08:12:39;8.03;;;5.30;;
71265;SDS011;59030;52.052;8.550;2023-08-08T08:15:08;8.33;;;5.37;;
71265;SDS011;59030;52.052;8.550;2023-08-08T08:17:35;6.47;;;5.20;;
71265;SDS011;59030;52.052;8.550;2023-08-08T08:20:03;8.73;;;5.43;;
71265;SDS011;59030;52.052;8.550;2023-08-08T08:22:32;6.67;;;4.73;;
71265;SDS011;59030;52.052;8.550;2023-08-08T08:24:59;8.67;;;5.57;;
71265;SDS011;59030;52.052;8.550;2023-08-08T08:27:27;9.57;;;6.50;;
71265;SDS011;59030;52.052;8.550;2023-08-08T08:29:54;8.33;;;6.00;;
71265;SDS011;59030;52.052;8.550;2023-08-08T08:32:21;11.87;;;7.10;;
71265;SDS011;59030;52.052;8.550;2023-08-08T08:34:48;11.00;;;7.53;;
71265;SDS011;59030;52.052;8.550;2023-08-08T08:37:16;10.50;;;6.97;;
71265;SDS011;59030;52.052;8.550;2023-08-08T08:39:43;10.27;;;7.23;;
71265;SDS011;59030;52.052;8.550;2023-08-08T08:42:10;9.20;;;6.80;;
71265;SDS011;59030;52.052;8.550;2023-08-08T08:44:39;9.37;;;7.07;;
71265;SDS011;59030;52.052;8.550;2023-08-08T08:47:07;10.97;;;7.23;;
71265;SDS011;59030;52.052;8.550;2023-08-08T08:49:36;9.37;;;6.47;;
71265;SDS011;59030;52.052;8.550;2023-08-08T08:52:05;9.47;;;6.17;;
71265;SDS011;59030;52.052;8.550;2023-08-08T08:54:32;9.43;;;5.60;;
71265;SDS011;59030;52.052;8.550;2023-08-08T08:56:59;7.07;;;5.33;;
71265;SDS011;59030;52.052;8.550;2023-08-08T08:59:26;7.80;;;6.00;;
71265;SDS011;59030;52.052;8.550;2023-08-08T09:01:54;10.20;;;5.73;;
71265;SDS011;59030;52.052;8.550;2023-08-08T09:04:22;7.57;;;5.80;;
71265;SDS011;59030;52.052;8.550;2023-08-08T09:06:50;7.73;;;5.60;;
71265;SDS011;59030;52.052;8.550;2023-08-08T09:09:17;7.70;;;5.30;;
71265;SDS011;59030;52.052;8.550;2023-08-08T09:11:47;8.20;;;5.43;;
71265;SDS011;59030;52.052;8.550;2023-08-08T09:14:18;9.13;;;5.90;;
71265;SDS011;59030;52.052;8.550;2023-08-08T09:16:45;8.10;;;5.70;;
71265;SDS011;59030;52.052;8.550;2023-08-08T09:19:13;9.43;;;6.07;;
71265;SDS011;59030;52.052;8.550;2023-08-08T09:21:40;7.83;;;5.60;;
71265;SDS011;59030;52.052;8.550;2023-08-08T09:24:07;10.37;;;5.53;;
71265;SDS011;59030;52.052;8.550;2023-08-08T09:26:35;8.20;;;5.10;;
71265;SDS011;59030;52.052;8.550;2023-08-08T09:29:02;7.30;;;5.00;;
71265;SDS011;59030;52.052;8.550;2023-08-08T09:31:29;6.73;;;4.60;;
71265;SDS011;59030;52.052;8.550;2023-08-08T09:33:57;8.17;;;4.70;;
71265;SDS011;59030;52.052;8.550;2023-08-08T09:36:25;5.90;;;4.53;;
71265;SDS011;59030;52.052;8.550;2023-08-08T09:38:52;6.07;;;4.43;;
71265;SDS011;59030;52.052;8.550;2023-08-08T09:41:20;4.83;;;4.10;;
71265;SDS011;59030;52.052;8.550;2023-08-08T09:43:47;9.20;;;4.03;;
71265;SDS011;59030;52.052;8.550;2023-08-08T09:46:15;4.63;;;3.90;;
71265;SDS011;59030;52.052;8.550;2023-08-08T09:48:42;5.67;;;3.70;;
71265;SDS011;59030;52.052;8.550;2023-08-08T09:51:09;4.67;;;2.87;;
71265;SDS011;59030;52.052;8.550;2023-08-08T09:53:36;6.10;;;3.10;;
71265;SDS011;59030;52.052;8.550;2023-08-08T09:56:05;5.03;;;2.87;;
71265;SDS011;59030;52.052;8.550;2023-08-08T09:58:33;4.10;;;2.80;;
71265;SDS011;59030;52.052;8.550;2023-08-08T10:01:00;4.37;;;2.63;;
71265;SDS011;59030;52.052;8.550;2023-08-08T10:03:30;3.80;;;2.57;;
71265;SDS011;59030;52.052;8.550;2023-08-08T10:05:59;2.90;;;2.60;;
71265;SDS011;59030;52.052;8.550;2023-08-08T10:08:29;4.60;;;3.10;;
71265;SDS011;59030;52.052;8.550;2023-08-08T10:10:56;3.83;;;2.77;;
71265;SDS011;59030;52.052;8.550;2023-08-08T10:13:24;4.33;;;2.60;;
71265;SDS011;59030;52.052;8.550;2023-08-08T10:15:52;5.10;;;2.60;;
71265;SDS011;59030;52.052;8.550;2023-08-08T10:18:20;3.23;;;2.70;;
71265;SDS011;59030;52.052;8.550;2023-08-08T10:20:48;2.63;;;2.10;;
71265;SDS011;59030;52.052;8.550;2023-08-08T10:23:16;2.87;;;2.07;;
71265;SDS011;59030;52.052;8.550;2023-08-08T10:25:44;2.27;;;2.07;;
71265;SDS011;59030;52.052;8.550;2023-08-08T10:28:12;2.57;;;2.07;;
71265;SDS011;59030;52.052;8.550;2023-08-08T10:30:44;2.30;;;2.10;;
71265;SDS011;59030;52.052;8.550;2023-08-08T10:33:17;2.67;;;1.93;;
71265;SDS011;59030;52.052;8.550;2023-08-08T10:35:53;1.67;;;1.57;;
71265;SDS011;59030;52.052;8.550;2023-08-08T10:38:20;1.73;;;1.60;;
71265;SDS011;59030;52.052;8.550;2023-08-08T10:40:48;2.03;;;1.60;;
71265;SDS011;59030;52.052;8.550;2023-08-08T10:43:24;2.20;;;1.57;;
71265;SDS011;59030;52.052;8.550;2023-08-08T10:45:45;5.17;;;1.73;;
71265;SDS011;59030;52.052;8.550;2023-08-08T10:48:12;2.00;;;1.67;;
71265;SDS011;59030;52.052;8.550;2023-08-08T10:50:41;1.73;;;1.57;;
71265;SDS011;59030;52.052;8.550;2023-08-08T10:53:09;2.00;;;1.70;;
71265;SDS011;59030;52.052;8.550;2023-08-08T10:55:37;1.47;;;1.20;;
71265;SDS011;59030;52.052;8.550;2023-08-08T10:58:06;2.10;;;1.50;;
71265;SDS011;59030;52.052;8.550;2023-08-08T11:00:34;1.37;;;1.27;;
71265;SDS011;59030;52.052;8.550;2023-08-08T11:03:02;1.60;;;1.23;;
71265;SDS011;59030;52.052;8.550;2023-08-08T11:05:31;1.20;;;1.10;;
71265;SDS011;59030;52.052;8.550;2023-08-08T11:07:59;1.90;;;1.20;;
71265;SDS011;59030;52.052;8.550;2023-08-08T11:10:26;1.07;;;1.07;;
71265;SDS011;59030;52.052;8.550;2023-08-08T11:12:57;3.03;;;1.20;;
71265;SDS011;59030;52.052;8.550;2023-08-08T11:15:26;1.47;;;1.27;;
71265;SDS011;59030;52.052;8.550;2023-08-08T11:17:55;1.30;;;1.20;;
71265;SDS011;59030;52.052;8.550;2023-08-08T11:20:22;1.30;;;1.20;;
71265;SDS011;59030;52.052;8.550;2023-08-08T11:22:53;1.13;;;1.13;;
71265;SDS011;59030;52.052;8.550;2023-08-08T11:25:20;1.43;;;1.33;;
71265;SDS011;59030;52.052;8.550;2023-08-08T11:27:49;1.40;;;1.30;;
71265;SDS011;59030;52.052;8.550;2023-08-08T11:30:16;1.10;;;1.00;;
71265;SDS011;59030;52.052;8.550;2023-08-08T11:32:44;1.37;;;1.23;;
71265;SDS011;59030;52.052;8.550;2023-08-08T11:35:12;1.00;;;1.00;;
71265;SDS011;59030;52.052;8.550;2023-08-08T11:37:39;1.20;;;1.10;;
71265;SDS011;59030;52.052;8.550;2023-08-08T11:40:07;1.30;;;1.20;;
71265;SDS011;59030;52.052;8.550;2023-08-08T11:42:35;1.20;;;1.00;;
71265;SDS011;59030;52.052;8.550;2023-08-08T11:45:02;1.43;;;0.77;;
71265;SDS011;59030;52.052;8.550;2023-08-08T11:47:30;1.63;;;1.10;;
71265;SDS011;59030;52.052;8.550;2023-08-08T11:50:00;1.27;;;1.17;;
71265;SDS011;59030;52.052;8.550;2023-08-08T11:52:29;1.60;;;1.23;;
71265;SDS011;59030;52.052;8.550;2023-08-08T11:54:56;1.07;;;0.97;;
71265;SDS011;59030;52.052;8.550;2023-08-08T11:57:26;2.37;;;1.00;;
71265;SDS011;59030;52.052;8.550;2023-08-08T11:59:53;1.80;;;0.90;;
71265;SDS011;59030;52.052;8.550;2023-08-08T12:02:20;3.43;;;1.20;;
71265;SDS011;59030;52.052;8.550;2023-08-08T12:04:47;1.27;;;1.00;;
71265;SDS011;59030;52.052;8.550;2023-08-08T12:07:15;1.27;;;1.00;;
71265;SDS011;59030;52.052;8.550;2023-08-08T12:09:44;2.23;;;0.90;;
71265;SDS011;59030;52.052;8.550;2023-08-08T12:12:13;0.87;;;0.87;;
71265;SDS011;59030;52.052;8.550;2023-08-08T12:14:41;0.90;;;0.90;;
71265;SDS011;59030;52.052;8.550;2023-08-08T12:17:09;1.80;;;0.93;;
71265;SDS011;59030;52.052;8.550;2023-08-08T12:19:36;1.50;;;0.90;;
71265;SDS011;59030;52.052;8.550;2023-08-08T12:22:03;0.90;;;0.83;;
71265;SDS011;59030;52.052;8.550;2023-08-08T12:24:31;2.87;;;1.00;;
71265;SDS011;59030;52.052;8.550;2023-08-08T12:26:59;1.83;;;1.10;;
71265;SDS011;59030;52.052;8.550;2023-08-08T12:29:26;1.73;;;1.13;;
71265;SDS011;59030;52.052;8.550;2023-08-08T12:31:53;1.13;;;0.90;;
71265;SDS011;59030;52.052;8.550;2023-08-08T12:34:20;0.80;;;0.80;;
71265;SDS011;59030;52.052;8.550;2023-08-08T12:36:48;1.20;;;0.87;;
71265;SDS011;59030;52.052;8.550;2023-08-08T12:39:15;1.37;;;0.90;;
71265;SDS011;59030;52.052;8.550;2023-08-08T12:41:42;1.53;;;1.00;;
71265;SDS011;59030;52.052;8.550;2023-08-08T12:44:10;0.83;;;0.83;;
71265;SDS011;59030;52.052;8.550;2023-08-08T12:46:37;1.17;;;0.73;;
71265;SDS011;59030;52.052;8.550;2023-08-08T12:49:04;0.80;;;0.80;;
71265;SDS011;59030;52.052;8.550;2023-08-08T12:51:32;1.00;;;0.90;;
71265;SDS011;59030;52.052;8.550;2023-08-08T12:53:59;1.53;;;1.00;;
71265;SDS011;59030;52.052;8.550;2023-08-08T12:56:26;0.83;;;0.80;;
71265;SDS011;59030;52.052;8.550;2023-08-08T12:58:53;1.43;;;0.80;;
71265;SDS011;59030;52.052;8.550;2023-08-08T13:01:21;0.77;;;0.77;;
71265;SDS011;59030;52.052;8.550;2023-08-08T13:03:48;0.70;;;0.70;;
71265;SDS011;59030;52.052;8.550;2023-08-08T13:06:15;0.70;;;0.70;;
71265;SDS011;59030;52.052;8.550;2023-08-08T13:08:42;0.73;;;0.70;;
71265;SDS011;59030;52.052;8.550;2023-08-08T13:11:10;0.73;;;0.67;;
71265;SDS011;59030;52.052;8.550;2023-08-08T13:13:37;1.47;;;0.80;;
71265;SDS011;59030;52.052;8.550;2023-08-08T13:16:05;0.60;;;0.60;;
71265;SDS011;59030;52.052;8.550;2023-08-08T13:18:32;1.53;;;0.80;;
71265;SDS011;59030;52.052;8.550;2023-08-08T13:21:03;0.93;;;0.83;;
71265;SDS011;59030;52.052;8.550;2023-08-08T13:23:30;0.73;;;0.73;;
71265;SDS011;59030;52.052;8.550;2023-08-08T13:25:57;0.90;;;0.60;;
71265;SDS011;59030;52.052;8.550;2023-08-08T13:28:25;0.70;;;0.60;;
71265;SDS011;59030;52.052;8.550;2023-08-08T13:30:52;0.80;;;0.80;;
71265;SDS011;59030;52.052;8.550;2023-08-08T13:33:20;0.70;;;0.70;;
71265;SDS011;59030;52.052;8.550;2023-08-08T13:35:47;0.97;;;0.97;;
71265;SDS011;59030;52.052;8.550;2023-08-08T13:38:14;0.90;;;0.90;;
71265;SDS011;59030;52.052;8.550;2023-08-08T13:40:42;1.03;;;0.97;;
71265;SDS011;59030;52.052;8.550;2023-08-08T13:43:09;0.60;;;0.60;;
71265;SDS011;59030;52.052;8.550;2023-08-08T13:45:36;0.83;;;0.80;;
71265;SDS011;59030;52.052;8.550;2023-08-08T13:48:04;0.67;;;0.67;;
71265;SDS011;59030;52.052;8.550;2023-08-08T13:50:31;0.80;;;0.80;;
71265;SDS011;59030;52.052;8.550;2023-08-08T13:52:59;0.80;;;0.80;;
71265;SDS011;59030;52.052;8.550;2023-08-08T13:55:26;1.17;;;0.87;;
71265;SDS011;59030;52.052;8.550;2023-08-08T13:57:53;2.20;;;0.93;;
71265;SDS011;59030;52.052;8.550;2023-08-08T14:00:21;0.80;;;0.80;;
71265;SDS011;59030;52.052;8.550;2023-08-08T14:02:48;1.57;;;1.00;;
71265;SDS011;59030;52.052;8.550;2023-08-08T14:05:16;0.70;;;0.70;;
71265;SDS011;59030;52.052;8.550;2023-08-08T14:07:43;0.67;;;0.67;;
71265;SDS011;59030;52.052;8.550;2023-08-08T14:10:11;0.80;;;0.80;;
71265;SDS011;59030;52.052;8.550;2023-08-08T14:12:38;1.10;;;1.00;;
71265;SDS011;59030;52.052;8.550;2023-08-08T14:15:06;1.43;;;1.00;;
71265;SDS011;59030;52.052;8.550;2023-08-08T14:17:35;1.43;;;0.70;;
71265;SDS011;59030;52.052;8.550;2023-08-08T14:20:02;1.90;;;1.10;;
71265;SDS011;59030;52.052;8.550;2023-08-08T14:22:30;1.07;;;0.90;;
71265;SDS011;59030;52.052;8.550;2023-08-08T14:24:58;1.67;;;0.70;;
71265;SDS011;59030;52.052;8.550;2023-08-08T14:27:25;0.83;;;0.83;;
71265;SDS011;59030;52.052;8.550;2023-08-08T14:29:52;0.60;;;0.60;;
71265;SDS011;59030;52.052;8.550;2023-08-08T14:32:19;0.77;;;0.77;;
71265;SDS011;59030;52.052;8.550;2023-08-08T14:34:47;0.73;;;0.73;;
71265;SDS011;59030;52.052;8.550;2023-08-08T14:37:14;1.07;;;0.90;;
71265;SDS011;59030;52.052;8.550;2023-08-08T14:39:41;0.80;;;0.80;;
71265;SDS011;59030;52.052;8.550;2023-08-08T14:42:08;1.00;;;0.90;;
71265;SDS011;59030;52.052;8.550;2023-08-08T14:44:36;0.67;;;0.67;;
71265;SDS011;59030;52.052;8.550;2023-08-08T14:47:03;0.80;;;0.80;;
71265;SDS011;59030;52.052;8.550;2023-08-08T14:49:31;1.10;;;1.00;;